sensor_id;sensor_type;location;lat;lon;timestamp;P1;durP1;ratioP1;P2;durP2;ratioP2
18838;SDS011;9548;56.920;14.804;2023-06-14T00:00:46;1.65;;;1.40;;
18838;SDS011;9548;56.920;14.804;2023-06-14T00:03:14;3.85;;;1.70;;
18838;SDS011;9548;56.920;14.804;2023-06-14T00:05:42;3.38;;;1.63;;
18838;SDS011;9548;56.920;14.804;2023-06-14T00:08:11;6.53;;;1.60;;
18838;SDS011;9548;56.920;14.804;2023-06-14T00:10:38;3.25;;;1.80;;
18838;SDS011;9548;56.920;14.804;2023-06-14T00:13:08;3.13;;;1.65;;
18838;SDS011;9548;56.920;14.804;2023-06-14T00:15:35;2.35;;;1.52;;
18838;SDS011;9548;56.920;14.804;2023-06-14T00:18:02;1.95;;;1.75;;
18838;SDS011;9548;56.920;14.804;2023-06-14T00:20:31;5.70;;;1.58;;
18838;SDS011;9548;56.920;14.804;2023-06-14T00:22:58;5.10;;;1.80;;
18838;SDS011;9548;56.920;14.804;2023-06-14T00:25:26;3.35;;;1.95;;
18838;SDS011;9548;56.920;14.804;2023-06-14T00:27:52;2.70;;;1.75;;
18838;SDS011;9548;56.920;14.804;2023-06-14T00:30:22;3.55;;;2.00;;
18838;SDS011;9548;56.920;14.804;2023-06-14T00:32:49;5.20;;;1.85;;
18838;SDS011;9548;56.920;14.804;2023-06-14T00:35:16;5.25;;;1.95;;
18838;SDS011;9548;56.920;14.804;2023-06-14T00:37:43;4.28;;;1.90;;
18838;SDS011;9548;56.920;14.804;2023-06-14T00:40:10;5.63;;;2.03;;
18838;SDS011;9548;56.920;14.804;2023-06-14T00:42:37;6.22;;;2.38;;
18838;SDS011;9548;56.920;14.804;2023-06-14T00:45:04;8.50;;;2.00;;
18838;SDS011;9548;56.920;14.804;2023-06-14T00:47:33;4.68;;;2.45;;
18838;SDS011;9548;56.920;14.804;2023-06-14T00:50:02;3.47;;;2.28;;
18838;SDS011;9548;56.920;14.804;2023-06-14T00:52:32;3.78;;;2.15;;
18838;SDS011;9548;56.920;14.804;2023-06-14T00:54:59;5.07;;;2.20;;
18838;SDS011;9548;56.920;14.804;2023-06-14T00:57:26;5.03;;;2.30;;
18838;SDS011;9548;56.920;14.804;2023-06-14T00:59:54;3.60;;;2.40;;
18838;SDS011;9548;56.920;14.804;2023-06-14T01:02:21;4.00;;;2.78;;
18838;SDS011;9548;56.920;14.804;2023-06-14T01:04:50;7.28;;;3.15;;
18838;SDS011;9548;56.920;14.804;2023-06-14T01:07:21;5.28;;;3.15;;
18838;SDS011;9548;56.920;14.804;2023-06-14T01:09:58;4.57;;;2.83;;
18838;SDS011;9548;56.920;14.804;2023-06-14T01:12:35;3.80;;;2.35;;
18838;SDS011;9548;56.920;14.804;2023-06-14T01:15:06;5.07;;;3.40;;
18838;SDS011;9548;56.920;14.804;2023-06-14T01:17:34;5.38;;;2.90;;
18838;SDS011;9548;56.920;14.804;2023-06-14T01:20:10;6.93;;;3.13;;
18838;SDS011;9548;56.920;14.804;2023-06-14T01:22:47;7.18;;;3.55;;
18838;SDS011;9548;56.920;14.804;2023-06-14T01:25:16;4.50;;;2.97;;
18838;SDS011;9548;56.920;14.804;2023-06-14T01:27:45;4.13;;;2.95;;
18838;SDS011;9548;56.920;14.804;2023-06-14T01:30:14;4.10;;;2.67;;
18838;SDS011;9548;56.920;14.804;2023-06-14T01:32:42;5.72;;;3.00;;
18838;SDS011;9548;56.920;14.804;2023-06-14T01:35:09;4.15;;;2.75;;
18838;SDS011;9548;56.920;14.804;2023-06-14T01:37:37;7.82;;;3.00;;
18838;SDS011;9548;56.920;14.804;2023-06-14T01:40:07;6.25;;;2.67;;
18838;SDS011;9548;56.920;14.804;2023-06-14T01:42:37;4.15;;;2.65;;
18838;SDS011;9548;56.920;14.804;2023-06-14T01:45:05;3.55;;;2.28;;
18838;SDS011;9548;56.920;14.804;2023-06-14T01:47:33;5.15;;;2.60;;
18838;SDS011;9548;56.920;14.804;2023-06-14T01:50:01;6.00;;;2.47;;
18838;SDS011;9548;56.920;14.804;2023-06-14T01:52:29;5.65;;;2.30;;
18838;SDS011;9548;56.920;14.804;2023-06-14T01:54:56;3.45;;;2.60;;
18838;SDS011;9548;56.920;14.804;2023-06-14T01:57:24;3.38;;;2.38;;
18838;SDS011;9548;56.920;14.804;2023-06-14T01:59:52;9.43;;;2.60;;
18838;SDS011;9548;56.920;14.804;2023-06-14T02:02:19;4.53;;;2.88;;
18838;SDS011;9548;56.920;14.804;2023-06-14T02:04:46;4.80;;;2.30;;
18838;SDS011;9548;56.920;14.804;2023-06-14T02:07:13;4.65;;;2.60;;
18838;SDS011;9548;56.920;14.804;2023-06-14T02:09:40;8.23;;;2.47;;
18838;SDS011;9548;56.920;14.804;2023-06-14T02:12:08;3.42;;;2.17;;
18838;SDS011;9548;56.920;14.804;2023-06-14T02:14:37;7.25;;;2.75;;
18838;SDS011;9548;56.920;14.804;2023-06-14T02:17:04;3.53;;;2.30;;
18838;SDS011;9548;56.920;14.804;2023-06-14T02:19:31;3.00;;;2.10;;
18838;SDS011;9548;56.920;14.804;2023-06-14T02:21:58;7.60;;;2.63;;
18838;SDS011;9548;56.920;14.804;2023-06-14T02:24:25;4.28;;;2.45;;
18838;SDS011;9548;56.920;14.804;2023-06-14T02:26:52;3.47;;;2.30;;
18838;SDS011;9548;56.920;14.804;2023-06-14T02:29:19;3.05;;;2.25;;
18838;SDS011;9548;56.920;14.804;2023-06-14T02:31:48;3.13;;;2.22;;
18838;SDS011;9548;56.920;14.804;2023-06-14T02:34:14;5.60;;;2.03;;
18838;SDS011;9548;56.920;14.804;2023-06-14T02:36:43;3.83;;;2.13;;
18838;SDS011;9548;56.920;14.804;2023-06-14T02:39:10;2.78;;;1.90;;
18838;SDS011;9548;56.920;14.804;2023-06-14T02:41:38;3.17;;;2.30;;
18838;SDS011;9548;56.920;14.804;2023-06-14T02:44:05;2.95;;;2.10;;
18838;SDS011;9548;56.920;14.804;2023-06-14T02:46:32;9.07;;;2.10;;
18838;SDS011;9548;56.920;14.804;2023-06-14T02:49:01;4.65;;;2.30;;
18838;SDS011;9548;56.920;14.804;2023-06-14T02:51:27;2.63;;;2.03;;
18838;SDS011;9548;56.920;14.804;2023-06-14T02:53:54;6.55;;;2.35;;
18838;SDS011;9548;56.920;14.804;2023-06-14T02:56:21;4.88;;;2.35;;
18838;SDS011;9548;56.920;14.804;2023-06-14T02:58:48;3.53;;;2.47;;
18838;SDS011;9548;56.920;14.804;2023-06-14T03:01:15;3.25;;;2.30;;
18838;SDS011;9548;56.920;14.804;2023-06-14T03:03:43;4.57;;;2.65;;
18838;SDS011;9548;56.920;14.804;2023-06-14T03:06:11;4.15;;;2.90;;
18838;SDS011;9548;56.920;14.804;2023-06-14T03:08:39;4.18;;;2.60;;
18838;SDS011;9548;56.920;14.804;2023-06-14T03:11:06;5.63;;;2.63;;
18838;SDS011;9548;56.920;14.804;2023-06-14T03:13:33;5.13;;;2.55;;
18838;SDS011;9548;56.920;14.804;2023-06-14T03:16:00;2.47;;;2.20;;
18838;SDS011;9548;56.920;14.804;2023-06-14T03:18:29;4.93;;;2.40;;
18838;SDS011;9548;56.920;14.804;2023-06-14T03:21:00;5.07;;;2.70;;
18838;SDS011;9548;56.920;14.804;2023-06-14T03:23:29;3.42;;;2.55;;
18838;SDS011;9548;56.920;14.804;2023-06-14T03:25:55;6.20;;;2.47;;
18838;SDS011;9548;56.920;14.804;2023-06-14T03:28:22;3.38;;;2.30;;
18838;SDS011;9548;56.920;14.804;2023-06-14T03:30:49;3.17;;;2.63;;
18838;SDS011;9548;56.920;14.804;2023-06-14T03:33:16;5.35;;;2.65;;
18838;SDS011;9548;56.920;14.804;2023-06-14T03:35:43;4.60;;;2.40;;
18838;SDS011;9548;56.920;14.804;2023-06-14T03:38:10;3.83;;;2.60;;
18838;SDS011;9548;56.920;14.804;2023-06-14T03:40:38;3.22;;;2.30;;
18838;SDS011;9548;56.920;14.804;2023-06-14T03:43:05;3.60;;;2.40;;
18838;SDS011;9548;56.920;14.804;2023-06-14T03:45:32;3.45;;;2.55;;
18838;SDS011;9548;56.920;14.804;2023-06-14T03:47:59;4.28;;;2.20;;
18838;SDS011;9548;56.920;14.804;2023-06-14T03:50:26;5.10;;;2.47;;
18838;SDS011;9548;56.920;14.804;2023-06-14T03:52:53;5.43;;;2.60;;
18838;SDS011;9548;56.920;14.804;2023-06-14T03:55:20;4.32;;;2.42;;
18838;SDS011;9548;56.920;14.804;2023-06-14T03:57:51;3.33;;;2.60;;
18838;SDS011;9548;56.920;14.804;2023-06-14T04:00:18;5.82;;;2.60;;
18838;SDS011;9548;56.920;14.804;2023-06-14T04:02:45;3.45;;;2.53;;
18838;SDS011;9548;56.920;14.804;2023-06-14T04:05:12;4.55;;;2.33;;
18838;SDS011;9548;56.920;14.804;2023-06-14T04:07:41;6.13;;;2.50;;
18838;SDS011;9548;56.920;14.804;2023-06-14T04:10:10;5.82;;;2.88;;
18838;SDS011;9548;56.920;14.804;2023-06-14T04:12:38;3.97;;;2.22;;
18838;SDS011;9548;56.920;14.804;2023-06-14T04:15:07;4.55;;;2.65;;
18838;SDS011;9548;56.920;14.804;2023-06-14T04:17:34;6.40;;;2.50;;
18838;SDS011;9548;56.920;14.804;2023-06-14T04:20:02;7.28;;;3.13;;
18838;SDS011;9548;56.920;14.804;2023-06-14T04:22:31;6.43;;;2.50;;
18838;SDS011;9548;56.920;14.804;2023-06-14T04:24:58;7.03;;;2.53;;
18838;SDS011;9548;56.920;14.804;2023-06-14T04:27:25;3.83;;;2.60;;
18838;SDS011;9548;56.920;14.804;2023-06-14T04:29:53;10.95;;;3.10;;
18838;SDS011;9548;56.920;14.804;2023-06-14T04:32:24;7.45;;;2.70;;
18838;SDS011;9548;56.920;14.804;2023-06-14T04:34:52;6.18;;;2.85;;
18838;SDS011;9548;56.920;14.804;2023-06-14T04:37:19;4.65;;;2.55;;
18838;SDS011;9548;56.920;14.804;2023-06-14T04:39:47;6.75;;;2.55;;
18838;SDS011;9548;56.920;14.804;2023-06-14T04:42:14;5.88;;;2.72;;
18838;SDS011;9548;56.920;14.804;2023-06-14T04:44:41;5.63;;;2.50;;
18838;SDS011;9548;56.920;14.804;2023-06-14T04:47:08;5.07;;;2.63;;
18838;SDS011;9548;56.920;14.804;2023-06-14T04:49:37;3.55;;;2.70;;
18838;SDS011;9548;56.920;14.804;2023-06-14T04:52:05;4.40;;;2.50;;
18838;SDS011;9548;56.920;14.804;2023-06-14T04:54:35;4.68;;;2.53;;
18838;SDS011;9548;56.920;14.804;2023-06-14T04:57:02;2.97;;;2.40;;
18838;SDS011;9548;56.920;14.804;2023-06-14T04:59:30;4.25;;;2.63;;
18838;SDS011;9548;56.920;14.804;2023-06-14T05:01:58;5.57;;;2.47;;
18838;SDS011;9548;56.920;14.804;2023-06-14T05:04:25;5.93;;;2.45;;
18838;SDS011;9548;56.920;14.804;2023-06-14T05:06:54;5.35;;;2.15;;
18838;SDS011;9548;56.920;14.804;2023-06-14T05:09:21;5.20;;;2.38;;
18838;SDS011;9548;56.920;14.804;2023-06-14T05:11:48;2.78;;;2.00;;
18838;SDS011;9548;56.920;14.804;2023-06-14T05:14:15;4.47;;;1.88;;
18838;SDS011;9548;56.920;14.804;2023-06-14T05:16:42;7.85;;;2.10;;
18838;SDS011;9548;56.920;14.804;2023-06-14T05:19:09;6.22;;;1.80;;
18838;SDS011;9548;56.920;14.804;2023-06-14T05:21:36;2.67;;;1.73;;
18838;SDS011;9548;56.920;14.804;2023-06-14T05:24:05;2.40;;;1.60;;
18838;SDS011;9548;56.920;14.804;2023-06-14T05:26:34;5.78;;;1.85;;
18838;SDS011;9548;56.920;14.804;2023-06-14T05:29:01;2.13;;;1.50;;
18838;SDS011;9548;56.920;14.804;2023-06-14T05:31:28;3.65;;;1.70;;
18838;SDS011;9548;56.920;14.804;2023-06-14T05:33:55;5.07;;;1.73;;
18838;SDS011;9548;56.920;14.804;2023-06-14T05:36:22;4.63;;;1.52;;
18838;SDS011;9548;56.920;14.804;2023-06-14T05:38:49;3.35;;;1.30;;
18838;SDS011;9548;56.920;14.804;2023-06-14T05:41:23;1.73;;;1.40;;
18838;SDS011;9548;56.920;14.804;2023-06-14T05:43:51;3.45;;;1.38;;
18838;SDS011;9548;56.920;14.804;2023-06-14T05:46:18;1.50;;;1.40;;
18838;SDS011;9548;56.920;14.804;2023-06-14T05:48:47;7.35;;;1.67;;
18838;SDS011;9548;56.920;14.804;2023-06-14T05:51:14;2.22;;;1.40;;
18838;SDS011;9548;56.920;14.804;2023-06-14T05:53:43;3.17;;;1.70;;
18838;SDS011;9548;56.920;14.804;2023-06-14T05:56:11;1.83;;;1.52;;
18838;SDS011;9548;56.920;14.804;2023-06-14T05:58:39;2.53;;;1.30;;
18838;SDS011;9548;56.920;14.804;2023-06-14T06:01:06;3.55;;;1.65;;
18838;SDS011;9548;56.920;14.804;2023-06-14T06:03:33;1.70;;;1.25;;
18838;SDS011;9548;56.920;14.804;2023-06-14T06:06:00;2.28;;;1.42;;
18838;SDS011;9548;56.920;14.804;2023-06-14T06:08:28;1.90;;;1.48;;
18838;SDS011;9548;56.920;14.804;2023-06-14T06:10:55;1.98;;;1.42;;
18838;SDS011;9548;56.920;14.804;2023-06-14T06:13:22;2.42;;;1.40;;
18838;SDS011;9548;56.920;14.804;2023-06-14T06:15:50;2.00;;;1.67;;
18838;SDS011;9548;56.920;14.804;2023-06-14T06:18:17;2.80;;;1.30;;
18838;SDS011;9548;56.920;14.804;2023-06-14T06:20:44;4.63;;;1.70;;
18838;SDS011;9548;56.920;14.804;2023-06-14T06:23:12;3.33;;;1.60;;
18838;SDS011;9548;56.920;14.804;2023-06-14T06:25:39;6.40;;;1.50;;
18838;SDS011;9548;56.920;14.804;2023-06-14T06:28:06;1.70;;;1.50;;
18838;SDS011;9548;56.920;14.804;2023-06-14T06:30:33;4.20;;;1.60;;
18838;SDS011;9548;56.920;14.804;2023-06-14T06:33:02;5.55;;;1.65;;
18838;SDS011;9548;56.920;14.804;2023-06-14T06:35:29;1.77;;;1.40;;
18838;SDS011;9548;56.920;14.804;2023-06-14T06:37:58;5.28;;;1.55;;
18838;SDS011;9548;56.920;14.804;2023-06-14T06:40:25;3.75;;;1.60;;
18838;SDS011;9548;56.920;14.804;2023-06-14T06:42:52;2.40;;;1.30;;
18838;SDS011;9548;56.920;14.804;2023-06-14T06:45:19;5.18;;;1.30;;
18838;SDS011;9548;56.920;14.804;2023-06-14T06:47:46;3.75;;;1.60;;
18838;SDS011;9548;56.920;14.804;2023-06-14T06:50:14;2.67;;;1.38;;
18838;SDS011;9548;56.920;14.804;2023-06-14T06:52:41;1.88;;;1.38;;
18838;SDS011;9548;56.920;14.804;2023-06-14T06:55:10;7.95;;;1.63;;
18838;SDS011;9548;56.920;14.804;2023-06-14T06:57:38;4.25;;;1.52;;
18838;SDS011;9548;56.920;14.804;2023-06-14T07:00:05;5.22;;;1.33;;
18838;SDS011;9548;56.920;14.804;2023-06-14T07:02:34;5.50;;;1.40;;
18838;SDS011;9548;56.920;14.804;2023-06-14T07:05:01;3.80;;;1.50;;
18838;SDS011;9548;56.920;14.804;2023-06-14T07:07:29;3.00;;;1.58;;
18838;SDS011;9548;56.920;14.804;2023-06-14T07:09:56;4.13;;;1.70;;
18838;SDS011;9548;56.920;14.804;2023-06-14T07:12:23;3.30;;;1.58;;
18838;SDS011;9548;56.920;14.804;2023-06-14T07:14:50;1.60;;;1.40;;
18838;SDS011;9548;56.920;14.804;2023-06-14T07:17:17;5.00;;;1.50;;
18838;SDS011;9548;56.920;14.804;2023-06-14T07:19:44;2.47;;;1.58;;
18838;SDS011;9548;56.920;14.804;2023-06-14T07:22:11;2.53;;;1.50;;
18838;SDS011;9548;56.920;14.804;2023-06-14T07:24:39;3.78;;;1.70;;
18838;SDS011;9548;56.920;14.804;2023-06-14T07:27:07;4.25;;;1.85;;
18838;SDS011;9548;56.920;14.804;2023-06-14T07:29:34;5.28;;;1.70;;
18838;SDS011;9548;56.920;14.804;2023-06-14T07:32:00;6.88;;;1.70;;
18838;SDS011;9548;56.920;14.804;2023-06-14T07:34:27;3.20;;;1.60;;
18838;SDS011;9548;56.920;14.804;2023-06-14T07:36:54;4.95;;;1.40;;
18838;SDS011;9548;56.920;14.804;2023-06-14T07:39:21;7.05;;;1.80;;
18838;SDS011;9548;56.920;14.804;2023-06-14T07:41:49;2.65;;;1.70;;
18838;SDS011;9548;56.920;14.804;2023-06-14T07:44:16;2.83;;;1.65;;
18838;SDS011;9548;56.920;14.804;2023-06-14T07:46:43;8.57;;;1.83;;
18838;SDS011;9548;56.920;14.804;2023-06-14T07:49:11;2.97;;;1.40;;
18838;SDS011;9548;56.920;14.804;2023-06-14T07:51:38;4.40;;;1.80;;
18838;SDS011;9548;56.920;14.804;2023-06-14T07:54:05;3.90;;;1.50;;
18838;SDS011;9548;56.920;14.804;2023-06-14T07:56:33;2.95;;;1.50;;
18838;SDS011;9548;56.920;14.804;2023-06-14T07:59:02;4.10;;;1.52;;
18838;SDS011;9548;56.920;14.804;2023-06-14T08:01:29;8.60;;;1.70;;
18838;SDS011;9548;56.920;14.804;2023-06-14T08:03:55;6.88;;;1.70;;
18838;SDS011;9548;56.920;14.804;2023-06-14T08:06:22;2.03;;;1.50;;
18838;SDS011;9548;56.920;14.804;2023-06-14T08:08:50;3.90;;;1.67;;
18838;SDS011;9548;56.920;14.804;2023-06-14T08:11:17;4.93;;;1.75;;
18838;SDS011;9548;56.920;14.804;2023-06-14T08:13:43;3.83;;;1.85;;
18838;SDS011;9548;56.920;14.804;2023-06-14T08:16:12;3.35;;;1.80;;
18838;SDS011;9548;56.920;14.804;2023-06-14T08:18:38;4.10;;;1.70;;
18838;SDS011;9548;56.920;14.804;2023-06-14T08:21:05;5.13;;;1.80;;
18838;SDS011;9548;56.920;14.804;2023-06-14T08:23:32;3.95;;;2.08;;
18838;SDS011;9548;56.920;14.804;2023-06-14T08:25:59;3.92;;;1.98;;
18838;SDS011;9548;56.920;14.804;2023-06-14T08:28:29;6.53;;;2.00;;
18838;SDS011;9548;56.920;14.804;2023-06-14T08:30:55;3.47;;;1.90;;
18838;SDS011;9548;56.920;14.804;2023-06-14T08:33:24;2.80;;;1.90;;
18838;SDS011;9548;56.920;14.804;2023-06-14T08:35:51;1.70;;;1.40;;
18838;SDS011;9548;56.920;14.804;2023-06-14T08:38:18;3.90;;;1.80;;
18838;SDS011;9548;56.920;14.804;2023-06-14T08:40:45;8.73;;;2.13;;
18838;SDS011;9548;56.920;14.804;2023-06-14T08:43:14;8.38;;;1.80;;
18838;SDS011;9548;56.920;14.804;2023-06-14T08:45:41;2.83;;;1.70;;
18838;SDS011;9548;56.920;14.804;2023-06-14T08:48:08;3.03;;;1.77;;
18838;SDS011;9548;56.920;14.804;2023-06-14T08:50:36;1.95;;;1.50;;
18838;SDS011;9548;56.920;14.804;2023-06-14T08:53:06;2.53;;;1.73;;
18838;SDS011;9548;56.920;14.804;2023-06-14T08:55:36;1.88;;;1.70;;
18838;SDS011;9548;56.920;14.804;2023-06-14T08:58:04;6.95;;;1.70;;
18838;SDS011;9548;56.920;14.804;2023-06-14T09:00:34;2.97;;;1.65;;
18838;SDS011;9548;56.920;14.804;2023-06-14T09:03:03;7.78;;;1.90;;
18838;SDS011;9548;56.920;14.804;2023-06-14T09:05:30;4.00;;;2.08;;
18838;SDS011;9548;56.920;14.804;2023-06-14T09:07:59;2.15;;;1.75;;
18838;SDS011;9548;56.920;14.804;2023-06-14T09:10:26;3.75;;;1.90;;
18838;SDS011;9548;56.920;14.804;2023-06-14T09:12:54;4.50;;;1.83;;
18838;SDS011;9548;56.920;14.804;2023-06-14T09:15:21;8.32;;;1.92;;
18838;SDS011;9548;56.920;14.804;2023-06-14T09:17:48;5.07;;;1.88;;
18838;SDS011;9548;56.920;14.804;2023-06-14T09:20:16;3.83;;;1.92;;
18838;SDS011;9548;56.920;14.804;2023-06-14T09:22:43;4.68;;;1.90;;
18838;SDS011;9548;56.920;14.804;2023-06-14T09:25:12;3.90;;;2.17;;
18838;SDS011;9548;56.920;14.804;2023-06-14T09:27:40;2.15;;;1.85;;
18838;SDS011;9548;56.920;14.804;2023-06-14T09:30:08;4.78;;;1.95;;
18838;SDS011;9548;56.920;14.804;2023-06-14T09:32:36;3.35;;;1.80;;
18838;SDS011;9548;56.920;14.804;2023-06-14T09:35:05;8.13;;;1.60;;
18838;SDS011;9548;56.920;14.804;2023-06-14T09:37:33;5.25;;;1.65;;
18838;SDS011;9548;56.920;14.804;2023-06-14T09:40:03;2.95;;;1.88;;
18838;SDS011;9548;56.920;14.804;2023-06-14T09:42:33;2.72;;;1.77;;
18838;SDS011;9548;56.920;14.804;2023-06-14T09:45:00;6.22;;;2.00;;
18838;SDS011;9548;56.920;14.804;2023-06-14T09:47:29;3.47;;;1.52;;
18838;SDS011;9548;56.920;14.804;2023-06-14T09:49:56;4.72;;;2.13;;
18838;SDS011;9548;56.920;14.804;2023-06-14T09:52:25;4.90;;;1.83;;
18838;SDS011;9548;56.920;14.804;2023-06-14T09:54:53;3.08;;;1.85;;
18838;SDS011;9548;56.920;14.804;2023-06-14T09:57:22;7.18;;;1.83;;
18838;SDS011;9548;56.920;14.804;2023-06-14T09:59:55;4.55;;;2.08;;
18838;SDS011;9548;56.920;14.804;2023-06-14T10:02:25;3.85;;;1.92;;
18838;SDS011;9548;56.920;14.804;2023-06-14T10:04:56;4.65;;;2.13;;
18838;SDS011;9548;56.920;14.804;2023-06-14T10:07:30;4.80;;;2.10;;
18838;SDS011;9548;56.920;14.804;2023-06-14T10:10:01;3.58;;;1.80;;
18838;SDS011;9548;56.920;14.804;2023-06-14T10:12:29;5.40;;;2.00;;
18838;SDS011;9548;56.920;14.804;2023-06-14T10:14:58;3.95;;;1.70;;
18838;SDS011;9548;56.920;14.804;2023-06-14T10:17:27;4.28;;;2.10;;
18838;SDS011;9548;56.920;14.804;2023-06-14T10:20:07;2.05;;;1.83;;
18838;SDS011;9548;56.920;14.804;2023-06-14T10:22:45;6.82;;;2.05;;
18838;SDS011;9548;56.920;14.804;2023-06-14T10:25:25;2.20;;;1.83;;
18838;SDS011;9548;56.920;14.804;2023-06-14T10:28:01;3.22;;;2.20;;
18838;SDS011;9548;56.920;14.804;2023-06-14T10:30:32;2.65;;;1.88;;
18838;SDS011;9548;56.920;14.804;2023-06-14T10:33:04;3.47;;;2.25;;
18838;SDS011;9548;56.920;14.804;2023-06-14T10:35:32;3.70;;;2.00;;
18838;SDS011;9548;56.920;14.804;2023-06-14T10:38:09;3.75;;;2.05;;
18838;SDS011;9548;56.920;14.804;2023-06-14T10:40:37;6.03;;;1.83;;
18838;SDS011;9548;56.920;14.804;2023-06-14T10:48:48;3.50;;;1.98;;
18838;SDS011;9548;56.920;14.804;2023-06-14T10:51:18;3.83;;;2.05;;
18838;SDS011;9548;56.920;14.804;2023-06-14T10:53:46;2.92;;;1.90;;
18838;SDS011;9548;56.920;14.804;2023-06-14T10:56:24;5.47;;;1.95;;
18838;SDS011;9548;56.920;14.804;2023-06-14T10:58:54;2.85;;;1.95;;
18838;SDS011;9548;56.920;14.804;2023-06-14T11:04:08;2.85;;;2.10;;
18838;SDS011;9548;56.920;14.804;2023-06-14T11:12:31;5.05;;;2.08;;
18838;SDS011;9548;56.920;14.804;2023-06-14T11:15:00;3.67;;;1.92;;
18838;SDS011;9548;56.920;14.804;2023-06-14T11:17:29;5.65;;;2.28;;
18838;SDS011;9548;56.920;14.804;2023-06-14T11:20:07;3.33;;;1.92;;
18838;SDS011;9548;56.920;14.804;2023-06-14T11:22:38;4.93;;;2.15;;
18838;SDS011;9548;56.920;14.804;2023-06-14T11:25:08;6.93;;;1.92;;
18838;SDS011;9548;56.920;14.804;2023-06-14T11:27:35;9.07;;;2.35;;
18838;SDS011;9548;56.920;14.804;2023-06-14T11:30:03;4.45;;;2.10;;
18838;SDS011;9548;56.920;14.804;2023-06-14T11:32:34;3.80;;;2.03;;
18838;SDS011;9548;56.920;14.804;2023-06-14T11:35:01;5.10;;;2.30;;
18838;SDS011;9548;56.920;14.804;2023-06-14T11:37:29;4.22;;;2.15;;
18838;SDS011;9548;56.920;14.804;2023-06-14T11:39:58;3.97;;;2.30;;
18838;SDS011;9548;56.920;14.804;2023-06-14T11:42:26;3.95;;;2.45;;
18838;SDS011;9548;56.920;14.804;2023-06-14T11:44:53;3.00;;;2.40;;
18838;SDS011;9548;56.920;14.804;2023-06-14T11:47:20;6.95;;;2.30;;
18838;SDS011;9548;56.920;14.804;2023-06-14T11:49:49;3.25;;;2.30;;
18838;SDS011;9548;56.920;14.804;2023-06-14T11:52:16;5.28;;;2.80;;
18838;SDS011;9548;56.920;14.804;2023-06-14T11:54:44;5.60;;;2.60;;
18838;SDS011;9548;56.920;14.804;2023-06-14T11:57:13;2.85;;;2.65;;
18838;SDS011;9548;56.920;14.804;2023-06-14T11:59:40;2.90;;;2.15;;
18838;SDS011;9548;56.920;14.804;2023-06-14T12:02:09;5.28;;;2.55;;
18838;SDS011;9548;56.920;14.804;2023-06-14T12:04:40;6.97;;;2.55;;
18838;SDS011;9548;56.920;14.804;2023-06-14T12:07:12;3.65;;;2.50;;
18838;SDS011;9548;56.920;14.804;2023-06-14T12:09:40;4.40;;;2.63;;
18838;SDS011;9548;56.920;14.804;2023-06-14T12:12:09;3.78;;;2.60;;
18838;SDS011;9548;56.920;14.804;2023-06-14T12:14:36;2.70;;;2.40;;
18838;SDS011;9548;56.920;14.804;2023-06-14T12:17:06;5.50;;;2.50;;
18838;SDS011;9548;56.920;14.804;2023-06-14T12:19:33;6.50;;;2.85;;
18838;SDS011;9548;56.920;14.804;2023-06-14T12:22:09;4.10;;;2.50;;
18838;SDS011;9548;56.920;14.804;2023-06-14T12:24:37;4.45;;;2.80;;
18838;SDS011;9548;56.920;14.804;2023-06-14T12:27:04;4.90;;;2.50;;
18838;SDS011;9548;56.920;14.804;2023-06-14T12:29:32;5.53;;;2.30;;
18838;SDS011;9548;56.920;14.804;2023-06-14T12:31:59;4.70;;;2.72;;
18838;SDS011;9548;56.920;14.804;2023-06-14T12:34:26;5.30;;;2.53;;
18838;SDS011;9548;56.920;14.804;2023-06-14T12:36:53;2.75;;;2.28;;
18838;SDS011;9548;56.920;14.804;2023-06-14T12:39:20;2.58;;;2.38;;
18838;SDS011;9548;56.920;14.804;2023-06-14T12:41:49;4.03;;;2.58;;
18838;SDS011;9548;56.920;14.804;2023-06-14T12:44:16;4.55;;;2.50;;
18838;SDS011;9548;56.920;14.804;2023-06-14T12:46:43;4.28;;;2.75;;
18838;SDS011;9548;56.920;14.804;2023-06-14T12:49:10;6.00;;;2.45;;
18838;SDS011;9548;56.920;14.804;2023-06-14T12:51:37;6.32;;;2.63;;
18838;SDS011;9548;56.920;14.804;2023-06-14T12:54:04;4.60;;;2.40;;
18838;SDS011;9548;56.920;14.804;2023-06-14T12:56:31;7.53;;;2.70;;
18838;SDS011;9548;56.920;14.804;2023-06-14T12:59:00;2.65;;;2.45;;
18838;SDS011;9548;56.920;14.804;2023-06-14T13:01:27;4.57;;;2.40;;
18838;SDS011;9548;56.920;14.804;2023-06-14T13:03:53;8.85;;;2.60;;
18838;SDS011;9548;56.920;14.804;2023-06-14T13:06:20;7.35;;;2.60;;
18838;SDS011;9548;56.920;14.804;2023-06-14T13:08:48;3.95;;;2.55;;
18838;SDS011;9548;56.920;14.804;2023-06-14T13:11:15;3.33;;;2.55;;
18838;SDS011;9548;56.920;14.804;2023-06-14T13:13:42;6.07;;;2.53;;
18838;SDS011;9548;56.920;14.804;2023-06-14T13:16:10;4.40;;;2.25;;
18838;SDS011;9548;56.920;14.804;2023-06-14T13:18:39;5.10;;;2.50;;
18838;SDS011;9548;56.920;14.804;2023-06-14T13:21:06;6.07;;;2.42;;
18838;SDS011;9548;56.920;14.804;2023-06-14T13:23:33;7.03;;;2.58;;
18838;SDS011;9548;56.920;14.804;2023-06-14T13:26:00;5.72;;;2.28;;
18838;SDS011;9548;56.920;14.804;2023-06-14T13:28:26;5.05;;;2.72;;
18838;SDS011;9548;56.920;14.804;2023-06-14T13:30:53;4.88;;;2.58;;
18838;SDS011;9548;56.920;14.804;2023-06-14T13:33:22;4.78;;;2.40;;
18838;SDS011;9548;56.920;14.804;2023-06-14T13:35:49;4.90;;;2.30;;
18838;SDS011;9548;56.920;14.804;2023-06-14T13:38:17;4.13;;;2.17;;
18838;SDS011;9548;56.920;14.804;2023-06-14T13:40:44;3.20;;;2.70;;
18838;SDS011;9548;56.920;14.804;2023-06-14T13:43:11;3.20;;;2.28;;
18838;SDS011;9548;56.920;14.804;2023-06-14T13:45:38;6.28;;;2.38;;
18838;SDS011;9548;56.920;14.804;2023-06-14T13:48:05;2.38;;;2.17;;
18838;SDS011;9548;56.920;14.804;2023-06-14T13:50:33;3.47;;;2.45;;
18838;SDS011;9548;56.920;14.804;2023-06-14T13:53:00;3.78;;;2.38;;
18838;SDS011;9548;56.920;14.804;2023-06-14T13:55:28;4.15;;;2.15;;
18838;SDS011;9548;56.920;14.804;2023-06-14T13:57:55;3.97;;;2.38;;
18838;SDS011;9548;56.920;14.804;2023-06-14T14:00:22;4.60;;;2.78;;
18838;SDS011;9548;56.920;14.804;2023-06-14T14:02:50;4.00;;;2.50;;
18838;SDS011;9548;56.920;14.804;2023-06-14T14:05:17;2.80;;;2.38;;
18838;SDS011;9548;56.920;14.804;2023-06-14T14:07:46;3.58;;;2.53;;
18838;SDS011;9548;56.920;14.804;2023-06-14T14:10:13;2.92;;;2.60;;
18838;SDS011;9548;56.920;14.804;2023-06-14T14:12:40;2.58;;;2.38;;
18838;SDS011;9548;56.920;14.804;2023-06-14T14:15:07;4.70;;;2.30;;
18838;SDS011;9548;56.920;14.804;2023-06-14T14:17:37;4.45;;;2.40;;
18838;SDS011;9548;56.920;14.804;2023-06-14T14:20:05;3.88;;;2.28;;
18838;SDS011;9548;56.920;14.804;2023-06-14T14:22:33;2.70;;;2.50;;
18838;SDS011;9548;56.920;14.804;2023-06-14T14:25:01;6.35;;;2.60;;
18838;SDS011;9548;56.920;14.804;2023-06-14T14:27:28;4.40;;;2.58;;
18838;SDS011;9548;56.920;14.804;2023-06-14T14:29:55;3.72;;;2.45;;
18838;SDS011;9548;56.920;14.804;2023-06-14T14:32:21;4.60;;;2.40;;
18838;SDS011;9548;56.920;14.804;2023-06-14T14:34:48;3.55;;;2.63;;
18838;SDS011;9548;56.920;14.804;2023-06-14T14:37:15;5.13;;;2.60;;
18838;SDS011;9548;56.920;14.804;2023-06-14T14:39:43;5.72;;;2.53;;
18838;SDS011;9548;56.920;14.804;2023-06-14T14:42:12;3.25;;;2.55;;
18838;SDS011;9548;56.920;14.804;2023-06-14T14:44:39;3.10;;;2.80;;
18838;SDS011;9548;56.920;14.804;2023-06-14T14:47:06;6.15;;;2.95;;
18838;SDS011;9548;56.920;14.804;2023-06-14T14:49:33;8.00;;;2.85;;
18838;SDS011;9548;56.920;14.804;2023-06-14T14:52:00;3.72;;;2.58;;
18838;SDS011;9548;56.920;14.804;2023-06-14T14:54:27;3.15;;;2.85;;
18838;SDS011;9548;56.920;14.804;2023-06-14T14:56:54;4.00;;;2.92;;
18838;SDS011;9548;56.920;14.804;2023-06-14T14:59:22;6.22;;;3.08;;
18838;SDS011;9548;56.920;14.804;2023-06-14T15:01:49;6.75;;;3.15;;
18838;SDS011;9548;56.920;14.804;2023-06-14T15:04:17;3.55;;;3.25;;
18838;SDS011;9548;56.920;14.804;2023-06-14T15:06:44;4.10;;;3.00;;